Impacts TAF Board INFO
FOR SITUATIONAL AWARENESS. NOT TO BE USED FOR FLIGHT PLANNING PURPOSES.
IDs:

KRWF - Redwood Falls Muni, MN, US

Issued at 0520 UTC 23 Jul 2018
Updated at 0808 UTC 23 Jul 2018
Potential Impact None Slight Moderate High
Time<<23/21Z 23/22Z 23/23Z 24/00Z 24/01Z 24/02Z 24/03Z 24/04Z 24/05Z 24/06Z 24/07Z 24/08Z 24/09Z>>
Type PRVL PRVL PRVL PRVL PRVL PRVL PRVL PRVL PRVL
VIS >6 >6 >6 >6 >6 >6 >6 >6 >6
CIG -- -- -- -- -- -- -- -- --
Cover FEW FEW FEW FEW FEW FEW SKC SKC SKC
FltCat VFR VFR VFR VFR VFR VFR VFR VFR VFR
WX -- -- -- -- -- -- -- -- --
WDir 330 330 330 330 330 330 310 310 310
WSpd 10 10 10 10 10 10 5 5 5
WGst 19 19 19 19 19 19 -- -- --

Raw TAF
KRWF 230520Z 2306/2406 00000KT P6SM SCT040 BKN080
  FM231300 32007KT P6SM SCT030 BKN050
  FM231600 32008KT P6SM FEW025 SCT060
  FM231900 33010G19KT P6SM FEW150
  FM240300 31005KT P6SM SKC


METAR Board
Radar Display
Forecast Discussion

FOR SITUATIONAL AWARENESS. NOT TO BE USED FOR FLIGHT PLANNING PURPOSES.